Time;durP1;ratioP1;P1;durP2;ratioP2;P2;SDS_P1;SDS_P2;PMS_P1;PMS_P2;Temp;Humidity;BMP_temperature;BMP_pressure;BME280_temperature;BME280_humidity;BME280_pressure;Samples;Min_cycle;Max_cycle;Signal;HPM_P1;HPM_P2
2021/05/01 00:01:03;;;;;;;58.50;41.13;;;7.90;99.90;;;;;;5009328;28;20045;-73
2021/05/01 00:03:29;;;;;;;60.35;42.45;;;7.90;99.90;;;;;;5033790;28;20072;-73
2021/05/01 00:05:54;;;;;;;52.60;38.00;;;7.80;99.90;;;;;;5019171;28;20029;-75
2021/05/01 00:08:21;;;;;;;53.42;39.08;;;7.70;99.90;;;;;;5000645;28;20022;-73
2021/05/01 00:10:47;;;;;;;61.92;41.75;;;7.80;99.90;;;;;;5008741;28;20026;-74
2021/05/01 00:13:12;;;;;;;59.28;41.95;;;7.80;99.90;;;;;;4996348;28;20041;-73
2021/05/01 00:15:38;;;;;;;63.25;43.00;;;7.60;99.90;;;;;;5028275;28;20084;-73
2021/05/01 00:18:04;;;;;;;63.63;43.75;;;7.70;99.90;;;;;;5015972;28;20021;-73
2021/05/01 00:20:30;;;;;;;56.00;41.20;;;7.60;99.90;;;;;;5018090;28;20034;-73
2021/05/01 00:22:55;;;;;;;61.00;40.97;;;7.60;99.90;;;;;;4996579;28;20029;-73
2021/05/01 00:25:21;;;;;;;69.30;45.58;;;7.60;99.90;;;;;;5026969;28;20395;-73
2021/05/01 00:27:46;;;;;;;55.22;39.55;;;7.50;99.90;;;;;;4996072;28;20443;-72
2021/05/01 00:30:12;;;;;;;51.22;38.40;;;7.60;99.90;;;;;;4995945;28;20442;-73
2021/05/01 00:32:38;;;;;;;59.50;40.10;;;7.80;99.90;;;;;;5021960;28;20045;-72
2021/05/01 00:35:04;;;;;;;55.38;39.25;;;7.80;99.90;;;;;;5018115;28;20022;-73
2021/05/01 00:37:30;;;;;;;62.53;42.88;;;7.80;99.90;;;;;;5013520;28;20036;-72
2021/05/01 00:39:55;;;;;;;58.00;41.00;;;7.80;99.90;;;;;;5013246;28;20030;-72
2021/05/01 00:42:21;;;;;;;50.25;37.97;;;7.80;99.90;;;;;;5021634;28;20044;-73
2021/05/01 00:44:46;;;;;;;57.75;40.85;;;7.80;99.90;;;;;;5018314;28;20037;-73
2021/05/01 00:47:12;;;;;;;63.80;43.83;;;7.80;99.90;;;;;;5013386;28;20033;-74
2021/05/01 00:49:37;;;;;;;75.93;46.47;;;7.60;99.90;;;;;;5026478;28;20022;-73
2021/05/01 00:52:03;;;;;;;67.68;44.35;;;7.50;99.90;;;;;;4999224;28;20024;-74
2021/05/01 00:54:30;;;;;;;73.03;46.85;;;7.40;99.90;;;;;;5012891;28;20072;-72
2021/05/01 00:56:57;;;;;;;76.47;47.45;;;7.20;99.90;;;;;;5013162;28;20034;-72
2021/05/01 00:59:22;;;;;;;87.80;50.38;;;7.10;99.90;;;;;;5013177;28;20026;-72
2021/05/01 01:01:51;;;;;;;85.68;49.35;;;7.00;99.90;;;;;;5020684;28;20087;-72
2021/05/01 01:04:18;;;;;;;90.45;49.38;;;7.00;99.90;;;;;;5031119;28;20033;-73
2021/05/01 01:06:45;;;;;;;58.45;42.03;;;7.10;99.90;;;;;;5013193;28;20069;-73
2021/05/01 01:09:11;;;;;;;94.70;51.20;;;7.20;99.90;;;;;;5026495;28;20399;-74
2021/05/01 01:11:37;;;;;;;80.60;47.38;;;7.10;99.90;;;;;;5021140;28;20071;-72
2021/05/01 01:14:05;;;;;;;63.05;43.20;;;7.10;99.90;;;;;;4999765;28;20113;-73
2021/05/01 01:16:31;;;;;;;58.85;41.58;;;7.30;99.90;;;;;;5021439;28;20032;-73
2021/05/01 01:18:57;;;;;;;60.85;43.00;;;7.40;99.90;;;;;;5025561;28;20026;-76
2021/05/01 01:21:22;;;;;;;65.75;43.58;;;7.50;99.90;;;;;;4994901;28;20075;-75
2021/05/01 01:23:49;;;;;;;56.67;42.33;;;7.50;99.90;;;;;;5014861;28;20105;-75
2021/05/01 01:26:15;;;;;;;63.50;43.85;;;7.60;99.90;;;;;;5023195;28;20026;-75
2021/05/01 01:28:40;;;;;;;63.13;43.97;;;7.50;99.90;;;;;;5007225;28;20442;-76
2021/05/01 01:31:06;;;;;;;66.13;45.30;;;7.50;99.90;;;;;;5000419;28;20053;-74
2021/05/01 01:33:31;;;;;;;67.65;46.95;;;7.50;99.90;;;;;;5027789;28;20037;-75
2021/05/01 01:35:57;;;;;;;74.15;48.13;;;7.50;99.90;;;;;;5005749;28;20021;-75
2021/05/01 01:38:22;;;;;;;80.13;49.70;;;7.50;99.90;;;;;;5008162;28;20391;-74
2021/05/01 01:40:48;;;;;;;82.50;50.15;;;7.40;99.90;;;;;;5021098;28;20029;-75
2021/05/01 01:43:14;;;;;;;85.45;49.42;;;7.30;99.90;;;;;;5001313;28;20121;-75
2021/05/01 01:45:39;;;;;;;84.05;48.53;;;6.90;99.90;;;;;;5023602;28;20170;-74
2021/05/01 01:48:05;;;;;;;89.82;50.55;;;6.70;99.90;;;;;;5025600;28;20475;-72
2021/05/01 01:50:31;;;;;;;99.88;52.20;;;6.70;99.90;;;;;;5020288;28;20100;-71
2021/05/01 01:52:57;;;;;;;83.53;49.83;;;6.80;99.90;;;;;;5001217;28;20475;-73
2021/05/01 01:55:24;;;;;;;71.30;46.25;;;6.80;99.90;;;;;;5023903;28;20084;-74
2021/05/01 01:57:51;;;;;;;105.43;53.80;;;6.90;99.90;;;;;;5025377;28;20087;-72
2021/05/01 02:00:20;;;;;;;102.93;53.45;;;7.00;99.90;;;;;;5020260;28;20512;-73
2021/05/01 02:02:46;;;;;;;81.88;51.15;;;6.90;99.90;;;;;;5018500;28;20060;-72
2021/05/01 02:05:13;;;;;;;76.05;48.88;;;6.90;99.90;;;;;;5005380;28;20124;-72
2021/05/01 02:07:39;;;;;;;92.85;52.80;;;7.10;99.90;;;;;;5025404;28;20032;-71
2021/05/01 02:10:06;;;;;;;115.10;57.40;;;7.20;99.90;;;;;;5002834;28;20025;-71
2021/05/01 02:12:37;;;;;;;85.28;52.08;;;7.00;99.90;;;;;;5016372;28;20030;-73
2021/05/01 02:15:05;;;;;;;78.78;49.70;;;7.00;99.90;;;;;;5011976;28;20424;-74
2021/05/01 02:17:31;;;;;;;64.10;44.75;;;7.10;99.90;;;;;;5011966;28;20026;-74
2021/05/01 02:19:56;;;;;;;86.65;51.95;;;7.20;99.90;;;;;;5012182;28;20040;-74
2021/05/01 02:22:22;;;;;;;92.07;51.97;;;7.30;99.90;;;;;;5012410;28;20022;-74
2021/05/01 02:24:47;;;;;;;97.47;54.33;;;7.20;99.90;;;;;;5005553;28;20107;-74
2021/05/01 02:27:13;;;;;;;122.57;57.97;;;6.90;99.90;;;;;;5015668;28;20040;-74
2021/05/01 02:29:38;;;;;;;110.78;54.92;;;6.80;99.90;;;;;;5012421;28;20598;-74
2021/05/01 02:32:04;;;;;;;105.93;54.53;;;6.60;99.90;;;;;;5012668;28;20026;-74
2021/05/01 02:34:29;;;;;;;126.18;58.95;;;6.40;99.90;;;;;;5001757;28;20365;-73
2021/05/01 02:36:55;;;;;;;134.15;59.38;;;6.40;99.90;;;;;;4984463;28;20022;-73
2021/05/01 02:39:20;;;;;;;168.63;63.13;;;6.50;99.90;;;;;;5011828;28;20508;-74
2021/05/01 02:41:46;;;;;;;189.35;65.05;;;6.40;99.90;;;;;;5010677;28;20108;-75
2021/05/01 02:44:11;;;;;;;161.50;63.40;;;6.40;99.90;;;;;;5021710;28;20040;-75
2021/05/01 02:46:37;;;;;;;202.55;68.70;;;6.40;99.90;;;;;;5007762;28;20110;-76
2021/05/01 02:49:03;;;;;;;164.27;63.92;;;6.40;99.90;;;;;;5004209;28;20475;-76
2021/05/01 02:51:28;;;;;;;168.40;66.25;;;6.40;99.90;;;;;;5018445;28;20551;-76
2021/05/01 02:53:54;;;;;;;158.82;67.60;;;6.60;99.90;;;;;;5005018;28;20022;-76
2021/05/01 02:56:19;;;;;;;95.55;53.63;;;6.60;99.90;;;;;;5007641;28;20684;-75
2021/05/01 02:58:45;;;;;;;87.38;51.78;;;6.60;99.90;;;;;;5021009;28;20089;-75
2021/05/01 03:01:10;;;;;;;106.22;56.25;;;6.80;99.90;;;;;;4997712;28;20036;-74
2021/05/01 03:03:36;;;;;;;121.18;58.60;;;6.90;99.90;;;;;;4995909;28;20033;-75
2021/05/01 03:06:01;;;;;;;99.97;53.40;;;6.90;99.90;;;;;;5020731;28;20025;-75
2021/05/01 03:08:27;;;;;;;74.07;49.03;;;6.90;99.90;;;;;;5020338;28;20117;-75
2021/05/01 03:10:52;;;;;;;84.20;51.58;;;7.00;99.90;;;;;;5018130;28;20034;-74
2021/05/01 03:13:18;;;;;;;86.32;51.13;;;7.10;99.90;;;;;;5005751;28;20033;-74
2021/05/01 03:15:43;;;;;;;74.20;48.78;;;7.10;99.90;;;;;;5027060;28;20025;-74
2021/05/01 03:18:09;;;;;;;83.10;50.42;;;7.00;99.90;;;;;;5023069;28;20037;-74
2021/05/01 03:20:35;;;;;;;87.25;51.80;;;6.90;99.90;;;;;;5005088;28;20017;-74
2021/05/01 03:23:01;;;;;;;136.38;62.95;;;7.00;99.90;;;;;;5007626;28;20396;-74
2021/05/01 03:25:26;;;;;;;123.43;58.20;;;6.90;99.90;;;;;;5016076;28;20064;-74
2021/05/01 03:27:52;;;;;;;115.70;57.85;;;6.90;99.90;;;;;;5025213;28;20620;-73
2021/05/01 03:30:18;;;;;;;82.43;50.97;;;6.80;99.90;;;;;;5020366;28;20083;-75
2021/05/01 03:32:44;;;;;;;134.55;59.45;;;6.80;99.90;;;;;;5007337;28;20107;-74
2021/05/01 03:35:12;;;;;;;100.70;53.38;;;6.80;99.90;;;;;;5010139;28;20063;-73
2021/05/01 03:37:37;;;;;;;93.10;52.63;;;6.80;99.90;;;;;;5024367;28;20482;-73
2021/05/01 03:40:05;;;;;;;626.85;116.28;;;6.70;99.90;;;;;;5020846;28;20108;-74
2021/05/01 03:42:30;;;;;;;429.80;87.25;;;6.70;99.90;;;;;;5024923;28;20069;-74
2021/05/01 03:44:56;;;;;;;501.60;102.07;;;6.40;99.90;;;;;;5027696;28;20061;-74
2021/05/01 03:47:21;;;;;;;360.45;76.38;;;6.40;99.90;;;;;;5023686;28;20029;-75
2021/05/01 03:49:47;;;;;;;518.53;90.30;;;6.40;99.90;;;;;;5018261;28;20029;-74
2021/05/01 03:52:12;;;;;;;217.27;65.55;;;6.50;99.90;;;;;;5023583;28;20095;-75
2021/05/01 03:54:38;;;;;;;808.22;127.53;;;6.60;99.90;;;;;;5018209;28;20029;-74
2021/05/01 03:57:04;;;;;;;708.28;125.15;;;6.50;99.90;;;;;;5014378;28;20072;-75
2021/05/01 03:59:29;;;;;;;964.80;150.38;;;6.30;99.90;;;;;;4996663;28;20478;-75
2021/05/01 04:01:55;;;;;;;142.25;61.58;;;6.30;99.90;;;;;;5014041;28;20579;-75
2021/05/01 04:04:20;;;;;;;94.18;53.78;;;6.50;99.90;;;;;;5015899;28;20037;-75
2021/05/01 04:06:46;;;;;;;142.52;69.15;;;6.60;99.90;;;;;;5007836;28;20030;-74
2021/05/01 04:09:13;;;;;;;119.15;61.08;;;6.60;99.90;;;;;;5027511;28;20104;-75
2021/05/01 04:11:38;;;;;;;156.10;65.82;;;6.70;99.90;;;;;;5022130;28;20033;-74
2021/05/01 04:14:04;;;;;;;114.93;61.63;;;6.70;99.90;;;;;;5001295;28;20018;-74
2021/05/01 04:16:29;;;;;;;102.25;58.63;;;6.70;99.90;;;;;;5001175;28;20396;-73
2021/05/01 04:18:55;;;;;;;99.88;57.03;;;6.80;99.90;;;;;;4994863;28;20023;-73
2021/05/01 04:21:21;;;;;;;88.05;54.30;;;6.90;99.90;;;;;;5012370;28;20035;-74
2021/05/01 04:23:47;;;;;;;89.30;54.13;;;6.80;99.90;;;;;;5020228;28;20057;-74
2021/05/01 04:26:14;;;;;;;94.50;53.95;;;6.70;99.90;;;;;;5024277;28;20030;-72
2021/05/01 04:28:40;;;;;;;82.75;51.17;;;6.60;99.90;;;;;;5026963;28;20071;-72
2021/05/01 04:31:05;;;;;;;111.57;57.15;;;6.70;99.90;;;;;;5001811;28;20125;-73
2021/05/01 04:33:31;;;;;;;116.05;57.40;;;6.60;99.90;;;;;;5013448;28;20627;-73
2021/05/01 04:35:56;;;;;;;108.53;56.80;;;6.60;99.90;;;;;;5022781;28;20078;-73
2021/05/01 04:38:23;;;;;;;83.18;51.03;;;6.60;99.90;;;;;;5002178;28;20046;-72
2021/05/01 04:40:48;;;;;;;85.15;51.88;;;6.50;99.90;;;;;;5024294;28;20057;-72
2021/05/01 04:43:16;;;;;;;78.72;49.75;;;6.50;99.90;;;;;;5026657;28;20110;-72
2021/05/01 04:45:42;;;;;;;89.10;50.80;;;6.50;99.90;;;;;;5022626;28;20045;-72
2021/05/01 04:48:08;;;;;;;79.45;50.30;;;6.50;99.90;;;;;;5017247;28;20120;-72
2021/05/01 04:50:34;;;;;;;80.65;50.22;;;6.40;99.90;;;;;;5022505;28;20108;-72
2021/05/01 04:53:00;;;;;;;74.38;48.70;;;6.50;99.90;;;;;;5019661;28;20025;-72
2021/05/01 04:55:26;;;;;;;118.45;57.72;;;6.50;99.90;;;;;;5023599;28;20022;-73
2021/05/01 04:57:52;;;;;;;74.35;48.30;;;6.60;99.90;;;;;;5011221;28;20025;-73
2021/05/01 05:00:20;;;;;;;81.05;49.85;;;6.60;99.90;;;;;;5023669;28;20444;-73
2021/05/01 05:02:47;;;;;;;74.13;47.97;;;6.70;99.90;;;;;;5026512;28;20030;-73
2021/05/01 05:05:17;;;;;;;77.20;50.08;;;6.70;99.90;;;;;;5022521;28;20029;-73
2021/05/01 05:07:43;;;;;;;116.22;55.40;;;6.90;99.90;;;;;;5002142;28;20411;-74
2021/05/01 05:10:11;;;;;;;97.57;55.20;;;6.90;99.90;;;;;;5022757;28;20026;-73
2021/05/01 05:12:36;;;;;;;103.45;53.08;;;6.80;99.90;;;;;;5007152;28;20041;-72
2021/05/01 05:15:04;;;;;;;104.53;55.28;;;6.50;99.90;;;;;;5022912;28;20387;-73
2021/05/01 05:17:30;;;;;;;125.75;57.90;;;6.60;99.90;;;;;;5019451;28;20021;-73
2021/05/01 05:19:55;;;;;;;132.20;59.30;;;6.50;99.90;;;;;;5018027;28;20021;-74
2021/05/01 05:22:21;;;;;;;106.20;56.85;;;6.50;99.90;;;;;;5004304;28;20103;-74
2021/05/01 05:24:46;;;;;;;120.28;58.90;;;6.60;99.90;;;;;;4996706;28;20029;-73
2021/05/01 05:27:12;;;;;;;110.95;60.35;;;6.90;99.90;;;;;;5019038;28;20025;-75
2021/05/01 05:29:37;;;;;;;110.60;61.05;;;7.00;99.90;;;;;;5022037;28;20034;-76
2021/05/01 05:32:04;;;;;;;110.53;59.03;;;7.20;99.90;;;;;;5026009;28;20026;-76
2021/05/01 05:34:31;;;;;;;110.35;58.65;;;7.00;99.90;;;;;;5022824;28;20022;-75
2021/05/01 05:36:56;;;;;;;108.93;59.08;;;6.90;99.90;;;;;;5001490;28;20091;-75
2021/05/01 05:39:22;;;;;;;105.65;61.05;;;6.80;99.90;;;;;;5021458;28;20415;-75
2021/05/01 05:41:48;;;;;;;101.90;57.95;;;7.00;99.90;;;;;;5025769;28;20024;-75
2021/05/01 05:44:13;;;;;;;100.63;59.47;;;7.30;99.90;;;;;;5022664;28;20030;-75
2021/05/01 05:46:39;;;;;;;92.53;56.10;;;7.40;99.90;;;;;;5001460;28;20060;-75
2021/05/01 05:49:05;;;;;;;89.75;55.83;;;7.70;99.90;;;;;;5004876;28;20022;-75
2021/05/01 05:51:31;;;;;;;85.28;53.20;;;7.70;99.90;;;;;;5008094;28;20026;-74
2021/05/01 05:53:57;;;;;;;79.82;51.55;;;7.80;99.90;;;;;;5022364;28;20080;-75
2021/05/01 05:56:23;;;;;;;88.25;53.75;;;7.80;99.90;;;;;;5001003;28;20526;-75
2021/05/01 05:58:49;;;;;;;82.20;52.65;;;7.80;99.90;;;;;;5022359;28;20652;-75
2021/05/01 06:01:14;;;;;;;83.30;51.92;;;7.60;99.90;;;;;;5012131;28;20033;-72
2021/05/01 06:03:42;;;;;;;79.10;51.30;;;7.50;99.90;;;;;;5017286;28;20057;-73
2021/05/01 06:06:12;;;;;;;75.07;50.08;;;7.60;99.90;;;;;;5025860;28;20041;-74
2021/05/01 06:08:38;;;;;;;67.10;47.50;;;7.70;99.90;;;;;;4994068;28;20030;-73
2021/05/01 06:11:04;;;;;;;79.13;51.15;;;7.80;99.90;;;;;;5012421;28;20103;-73
2021/05/01 06:13:34;;;;;;;75.18;51.33;;;7.90;99.90;;;;;;5021008;28;20065;-73
2021/05/01 06:16:01;;;;;;;73.15;49.25;;;7.60;99.90;;;;;;5001001;28;20447;-74
2021/05/01 06:18:33;;;;;;;75.68;52.70;;;7.70;99.90;;;;;;4999660;28;20045;-70
2021/05/01 06:20:59;;;;;;;74.35;50.40;;;7.80;99.90;;;;;;5023715;28;20081;-75
2021/05/01 06:23:25;;;;;;;78.93;53.03;;;7.80;99.90;;;;;;5013902;28;20030;-72
2021/05/01 06:25:51;;;;;;;78.45;53.45;;;7.60;99.90;;;;;;5022327;28;20026;-74
2021/05/01 06:28:17;;;;;;;77.35;51.10;;;7.50;99.90;;;;;;5004451;28;20025;-74
2021/05/01 06:30:44;;;;;;;73.00;50.28;;;7.70;99.90;;;;;;4997838;28;20072;-73
2021/05/01 06:33:11;;;;;;;76.35;51.67;;;7.80;99.90;;;;;;5003361;28;20041;-74
2021/05/01 06:35:43;;;;;;;74.40;51.20;;;8.00;99.90;;;;;;5010009;28;20022;-73
2021/05/01 06:38:09;;;;;;;70.93;49.80;;;8.10;99.90;;;;;;5000590;28;20030;-72
2021/05/01 06:40:42;;;;;;;74.47;50.75;;;8.20;99.90;;;;;;5024641;28;20030;-73
2021/05/01 06:43:31;;;;;;;75.43;51.00;;;8.10;99.90;;;;;;5024600;28;20021;-72
2021/05/01 06:45:59;;;;;;;66.13;48.25;;;8.10;99.90;;;;;;4994174;28;20029;-75
2021/05/01 06:48:29;;;;;;;63.67;45.97;;;8.30;99.90;;;;;;5011571;28;20468;-74
2021/05/01 06:51:00;;;;;;;60.85;45.72;;;8.60;99.90;;;;;;5012732;28;20042;-74
2021/05/01 06:53:30;;;;;;;62.25;45.50;;;9.00;99.90;;;;;;5015375;28;20214;-75
2021/05/01 06:56:02;;;;;;;62.45;46.15;;;9.10;99.90;;;;;;5015559;28;20022;-75
2021/05/01 06:58:30;;;;;;;63.92;46.05;;;8.90;99.90;;;;;;5015359;28;20026;-75
2021/05/01 07:00:59;;;;;;;65.13;45.83;;;9.10;99.90;;;;;;4998580;28;20080;-73
2021/05/01 07:03:26;;;;;;;68.03;48.85;;;9.00;99.90;;;;;;5036008;28;20078;-72
2021/05/01 07:05:53;;;;;;;65.30;45.97;;;8.90;99.90;;;;;;5017450;28;20044;-74
2021/05/01 07:08:19;;;;;;;60.95;45.70;;;8.90;99.90;;;;;;5027231;28;20511;-73
2021/05/01 07:10:45;;;;;;;65.28;48.60;;;8.90;99.90;;;;;;5016719;28;20037;-73
2021/05/01 07:13:14;;;;;;;60.20;44.95;;;9.10;99.90;;;;;;5035363;28;20383;-73
2021/05/01 07:15:41;;;;;;;57.47;44.03;;;9.10;99.90;;;;;;5017350;28;20032;-72
2021/05/01 07:18:09;;;;;;;56.25;42.47;;;9.20;99.90;;;;;;5027117;28;20380;-73
2021/05/01 07:20:35;;;;;;;53.08;41.25;;;9.30;99.90;;;;;;5005507;28;20033;-72
2021/05/01 07:23:01;;;;;;;56.13;41.90;;;9.40;99.90;;;;;;5025655;28;20036;-73
2021/05/01 07:25:27;;;;;;;60.47;42.58;;;9.30;99.90;;;;;;5028720;28;20022;-72
2021/05/01 07:27:53;;;;;;;53.55;40.60;;;9.30;99.90;;;;;;5025079;28;20448;-74
2021/05/01 07:30:21;;;;;;;51.00;39.47;;;9.20;99.90;;;;;;5035182;28;20022;-73
2021/05/01 07:32:49;;;;;;;51.67;39.03;;;9.20;99.90;;;;;;5035179;28;20463;-74
2021/05/01 07:35:18;;;;;;;59.90;47.40;;;9.20;99.90;;;;;;5034473;28;20553;-73
2021/05/01 07:37:45;;;;;;;58.00;44.75;;;9.00;99.90;;;;;;5001635;28;20096;-74
2021/05/01 07:40:12;;;;;;;54.72;42.60;;;9.00;99.90;;;;;;5014909;28;20037;-69
2021/05/01 07:42:43;;;;;;;53.75;41.72;;;9.30;99.90;;;;;;5014317;28;20017;-74
2021/05/01 07:45:10;;;;;;;55.38;41.05;;;9.30;99.90;;;;;;5015857;28;20057;-74
2021/05/01 07:47:36;;;;;;;47.97;37.33;;;9.10;99.90;;;;;;4997709;28;20026;-74
2021/05/01 07:50:04;;;;;;;48.42;37.20;;;9.30;99.90;;;;;;5022363;28;20037;-74
2021/05/01 07:52:31;;;;;;;46.13;35.10;;;9.90;99.90;;;;;;5014559;28;20029;-74
2021/05/01 07:54:58;;;;;;;46.55;36.17;;;10.10;99.90;;;;;;5014040;28;20018;-74
2021/05/01 07:57:24;;;;;;;41.80;32.20;;;10.20;99.90;;;;;;5017342;28;20100;-74
2021/05/01 07:59:50;;;;;;;43.70;34.70;;;10.20;99.90;;;;;;5021908;28;20026;-74
2021/05/01 08:02:16;;;;;;;41.28;33.25;;;10.20;99.90;;;;;;5013537;28;20033;-72
2021/05/01 08:04:41;;;;;;;42.72;32.33;;;10.10;99.90;;;;;;4997263;28;20200;-72
2021/05/01 08:07:07;;;;;;;37.67;30.33;;;10.30;99.90;;;;;;5017108;28;20083;-72
2021/05/01 08:09:32;;;;;;;39.00;31.90;;;10.20;99.90;;;;;;5006164;28;20049;-71
2021/05/01 08:11:58;;;;;;;41.85;33.13;;;10.40;99.90;;;;;;5026385;28;20483;-74
2021/05/01 08:14:23;;;;;;;38.75;32.03;;;10.30;99.90;;;;;;5009908;28;20026;-72
2021/05/01 08:16:49;;;;;;;39.83;32.20;;;10.30;99.90;;;;;;5026541;28;20072;-72
2021/05/01 08:19:15;;;;;;;34.83;27.35;;;10.40;99.90;;;;;;5005470;28;20083;-73
2021/05/01 08:21:41;;;;;;;30.38;25.73;;;10.80;99.90;;;;;;5022635;28;20036;-73
2021/05/01 08:24:07;;;;;;;30.63;25.58;;;11.10;99.90;;;;;;4999614;28;20118;-73
2021/05/01 08:26:32;;;;;;;33.33;25.08;;;11.70;99.90;;;;;;4995989;28;20146;-72
2021/05/01 08:28:59;;;;;;;29.13;24.50;;;12.00;99.90;;;;;;5022547;28;20511;-73
2021/05/01 08:31:24;;;;;;;42.50;28.10;;;11.70;99.90;;;;;;5019199;28;20113;-72
2021/05/01 08:33:50;;;;;;;31.92;25.90;;;11.40;99.90;;;;;;5019722;28;20051;-73
2021/05/01 08:36:17;;;;;;;27.42;22.30;;;11.70;99.90;;;;;;5017329;28;20468;-73
2021/05/01 08:38:42;;;;;;;29.40;24.52;;;11.80;99.90;;;;;;5016012;28;20033;-73
2021/05/01 08:41:08;;;;;;;25.40;22.27;;;11.60;99.90;;;;;;5019632;28;20022;-72
2021/05/01 08:43:34;;;;;;;26.25;22.42;;;11.60;99.90;;;;;;5023780;28;20391;-73
2021/05/01 08:46:01;;;;;;;27.48;23.42;;;11.60;99.90;;;;;;5017526;28;20029;-74
2021/05/01 08:48:28;;;;;;;25.25;21.38;;;11.50;99.90;;;;;;4998653;28;20428;-73
2021/05/01 08:51:00;;;;;;;25.83;22.65;;;11.60;99.90;;;;;;5013095;28;20026;-73
2021/05/01 08:53:27;;;;;;;26.92;22.73;;;11.60;99.90;;;;;;5012919;28;20031;-73
2021/05/01 08:55:53;;;;;;;24.15;21.13;;;11.80;99.90;;;;;;5018263;28;20471;-73
2021/05/01 08:58:18;;;;;;;24.67;21.30;;;12.00;99.90;;;;;;5012198;28;20041;-73
2021/05/01 09:00:47;;;;;;;22.80;20.17;;;12.40;99.90;;;;;;5017408;28;20030;-73
2021/05/01 09:03:14;;;;;;;23.40;20.88;;;12.30;99.90;;;;;;5023680;28;20029;-73
2021/05/01 09:05:41;;;;;;;25.00;21.33;;;12.30;99.90;;;;;;5006450;28;20034;-72
2021/05/01 09:08:08;;;;;;;22.60;20.20;;;12.60;99.90;;;;;;5013614;28;20048;-73
2021/05/01 09:10:42;;;;;;;26.23;22.20;;;12.60;99.90;;;;;;5032802;28;20021;-73
2021/05/01 09:13:17;;;;;;;22.67;20.25;;;12.70;99.90;;;;;;5004265;28;20022;-73
2021/05/01 09:16:07;;;;;;;22.83;19.77;;;13.30;99.90;;;;;;5002813;28;20076;-73
2021/05/01 09:18:48;;;;;;;26.33;21.65;;;13.70;99.90;;;;;;5018801;28;20495;-74
2021/05/01 09:21:28;;;;;;;26.00;20.70;;;13.80;99.90;;;;;;5016095;28;20021;-75
2021/05/01 09:23:54;;;;;;;24.40;20.70;;;13.50;99.90;;;;;;5019339;28;20045;-74
2021/05/01 09:26:41;;;;;;;28.17;22.30;;;13.40;99.90;;;;;;5018150;28;20029;-75
2021/05/01 09:29:07;;;;;;;26.83;22.88;;;12.70;99.90;;;;;;5018444;28;20029;-73
2021/05/01 09:31:43;;;;;;;25.73;22.88;;;12.40;99.90;;;;;;5019003;28;20030;-75
2021/05/01 09:34:09;;;;;;;25.95;22.27;;;12.30;99.90;;;;;;5012115;28;20026;-75
2021/05/01 09:36:35;;;;;;;24.95;21.17;;;12.30;99.90;;;;;;5012221;28;20033;-74
2021/05/01 09:39:05;;;;;;;23.70;20.42;;;12.30;99.90;;;;;;5018692;28;20028;-74
2021/05/01 09:41:41;;;;;;;23.67;20.95;;;12.30;99.90;;;;;;5017059;28;20034;-73
2021/05/01 09:44:08;;;;;;;23.55;20.98;;;12.30;99.90;;;;;;5011880;28;20029;-74
2021/05/01 09:46:37;;;;;;;25.85;20.70;;;12.30;99.90;;;;;;5022993;28;20032;-73
2021/05/01 09:49:27;;;;;;;24.13;20.40;;;12.60;99.90;;;;;;4999935;28;20036;-74
2021/05/01 09:52:01;;;;;;;25.58;20.13;;;12.90;99.90;;;;;;5017421;28;20029;-73
2021/05/01 09:54:32;;;;;;;22.55;20.15;;;13.00;99.90;;;;;;4997242;28;20152;-72
2021/05/01 09:57:01;;;;;;;21.30;19.00;;;12.90;99.90;;;;;;5016044;28;20029;-73
2021/05/01 09:59:41;;;;;;;21.17;18.83;;;13.10;99.90;;;;;;5014914;28;20026;-73
2021/05/01 10:02:09;;;;;;;21.38;19.08;;;13.40;99.90;;;;;;5014256;28;20458;-73
2021/05/01 10:04:35;;;;;;;22.58;18.30;;;13.30;99.90;;;;;;5017404;28;20560;-74
2021/05/01 10:07:04;;;;;;;20.45;17.45;;;13.50;99.90;;;;;;5018136;28;20033;-73
2021/05/01 10:09:36;;;;;;;19.20;17.20;;;13.40;99.90;;;;;;5011599;28;20029;-73
2021/05/01 10:12:22;;;;;;;19.40;17.33;;;13.60;99.90;;;;;;5006401;28;20592;-73
2021/05/01 10:14:52;;;;;;;20.15;18.05;;;13.80;99.90;;;;;;5013171;28;20114;-72
2021/05/01 10:17:21;;;;;;;21.02;17.10;;;13.70;99.90;;;;;;5030906;28;20483;-73
2021/05/01 10:19:50;;;;;;;21.10;16.77;;;14.10;99.90;;;;;;5017490;28;20049;-72
2021/05/01 10:22:29;;;;;;;17.80;16.00;;;14.10;99.90;;;;;;4996996;28;20042;-73
2021/05/01 10:24:56;;;;;;;18.30;16.35;;;14.40;99.90;;;;;;4999514;28;20060;-74
2021/05/01 10:27:22;;;;;;;18.08;16.02;;;13.90;99.90;;;;;;5009418;28;20029;-75
2021/05/01 10:30:12;;;;;;;18.05;16.15;;;14.00;99.90;;;;;;5006593;28;20029;-73
2021/05/01 10:32:45;;;;;;;17.90;15.90;;;14.00;99.90;;;;;;4997833;28;20029;-74
2021/05/01 10:35:12;;;;;;;18.70;16.35;;;13.90;99.90;;;;;;5028797;28;20391;-73
2021/05/01 10:37:56;;;;;;;19.08;17.15;;;13.90;99.90;;;;;;5019864;28;20026;-73
2021/05/01 10:40:23;;;;;;;19.80;17.70;;;13.80;99.90;;;;;;4998862;28;20368;-73
2021/05/01 10:43:09;;;;;;;19.88;16.98;;;13.90;99.90;;;;;;5010212;28;20108;-73
2021/05/01 10:45:34;;;;;;;17.92;16.05;;;14.10;99.90;;;;;;5018197;28;20026;-73
2021/05/01 10:48:08;;;;;;;19.17;16.60;;;14.40;99.90;;;;;;5015300;28;20030;-75
2021/05/01 10:50:35;;;;;;;18.88;16.33;;;14.30;99.90;;;;;;5020957;28;20029;-73
2021/05/01 10:53:03;;;;;;;17.83;15.88;;;14.40;99.90;;;;;;5029820;28;20480;-73
2021/05/01 10:55:46;;;;;;;18.05;16.25;;;14.30;99.90;;;;;;4997443;28;20033;-74
2021/05/01 10:58:12;;;;;;;17.50;15.18;;;14.50;99.90;;;;;;5027559;28;20029;-73
2021/05/01 11:00:41;;;;;;;18.02;16.13;;;14.30;99.90;;;;;;5009474;28;20025;-73
2021/05/01 11:03:08;;;;;;;18.25;15.93;;;14.30;99.90;;;;;;5004016;28;20029;-73
2021/05/01 11:05:40;;;;;;;17.30;15.50;;;14.20;99.90;;;;;;5023071;28;20029;-73
2021/05/01 11:08:29;;;;;;;19.10;16.80;;;13.90;99.90;;;;;;5029682;28;20049;-73
2021/05/01 11:10:57;;;;;;;18.00;15.88;;;13.90;99.90;;;;;;5014627;28;20030;-73
2021/05/01 11:13:27;;;;;;;17.38;14.48;;;14.00;99.90;;;;;;5025402;28;20025;-73
2021/05/01 11:15:59;;;;;;;15.70;13.93;;;14.20;99.90;;;;;;5008640;28;20476;-74
2021/05/01 11:18:26;;;;;;;16.15;14.45;;;14.30;99.90;;;;;;5010614;28;20029;-73
2021/05/01 11:20:59;;;;;;;16.40;14.60;;;14.50;99.90;;;;;;5029582;28;20373;-72
2021/05/01 11:23:28;;;;;;;15.18;13.57;;;14.60;99.90;;;;;;5009796;28;20041;-74
2021/05/01 11:25:56;;;;;;;18.42;16.42;;;15.00;99.90;;;;;;5027815;28;20018;-72
2021/05/01 11:28:25;;;;;;;20.10;16.75;;;15.00;99.90;;;;;;5010383;28;20029;-73
2021/05/01 11:30:53;;;;;;;16.63;14.82;;;15.30;99.90;;;;;;5022096;28;20104;-74
2021/05/01 11:33:20;;;;;;;17.25;15.45;;;15.70;99.90;;;;;;5034412;28;20025;-74
2021/05/01 11:35:48;;;;;;;18.02;14.75;;;15.70;99.90;;;;;;5016226;28;20021;-74
2021/05/01 11:38:22;;;;;;;18.00;13.70;;;15.60;99.90;;;;;;5033835;28;20104;-75
2021/05/01 11:40:51;;;;;;;15.77;14.05;;;15.60;99.90;;;;;;5034388;28;20026;-74
2021/05/01 11:43:18;;;;;;;15.35;13.85;;;15.80;99.90;;;;;;5034339;28;20037;-74
2021/05/01 11:45:50;;;;;;;15.05;13.48;;;15.80;99.90;;;;;;5034465;28;20083;-73
2021/05/01 11:48:27;;;;;;;15.25;12.98;;;15.60;99.90;;;;;;5016403;28;20029;-74
2021/05/01 11:50:52;;;;;;;14.18;12.68;;;15.40;99.90;;;;;;5034314;28;20099;-74
2021/05/01 11:53:40;;;;;;;13.35;12.02;;;15.60;99.90;;;;;;5029161;28;20473;-73
2021/05/01 11:56:17;;;;;;;14.45;13.02;;;15.50;99.90;;;;;;5028503;28;20090;-74
2021/05/01 11:58:43;;;;;;;14.23;12.40;;;14.80;99.90;;;;;;5015397;28;20022;-74
2021/05/01 12:01:17;;;;;;;15.18;13.05;;;14.50;99.90;;;;;;4997318;28;20028;-73
2021/05/01 12:03:57;;;;;;;14.02;12.68;;;14.80;99.90;;;;;;5014812;28;20034;-73
2021/05/01 12:06:32;;;;;;;13.90;11.70;;;15.10;99.90;;;;;;5004351;28;20041;-73
2021/05/01 12:09:11;;;;;;;12.30;11.00;;;14.60;99.90;;;;;;5021121;28;20018;-73
2021/05/01 12:11:37;;;;;;;13.95;12.52;;;14.50;99.90;;;;;;5033890;28;20034;-73
2021/05/01 12:14:10;;;;;;;12.63;11.43;;;14.30;99.90;;;;;;5033494;28;20582;-74
2021/05/01 12:16:36;;;;;;;14.02;12.43;;;14.10;99.90;;;;;;5033796;28;20033;-74
2021/05/01 12:19:03;;;;;;;13.95;12.43;;;14.20;99.90;;;;;;5026041;28;20021;-75
2021/05/01 12:21:31;;;;;;;13.82;12.52;;;14.70;99.90;;;;;;5013893;28;20030;-75
2021/05/01 12:23:59;;;;;;;13.60;12.02;;;14.30;99.90;;;;;;5005453;28;20105;-74
2021/05/01 12:26:39;;;;;;;13.45;12.13;;;14.10;99.90;;;;;;5008988;28;20101;-74
2021/05/01 12:29:24;;;;;;;13.10;11.80;;;14.20;99.90;;;;;;4996296;28;20030;-74
2021/05/01 12:31:59;;;;;;;12.93;11.63;;;14.50;99.90;;;;;;5013757;28;20026;-74
2021/05/01 12:34:47;;;;;;;13.00;11.80;;;14.70;99.90;;;;;;5006429;28;20021;-73